sensor_id;sensor_type;location;lat;lon;timestamp;P1;durP1;ratioP1;P2;durP2;ratioP2
13374;SDS011;6756;51.354;15.754;2022-12-18T00:00:40;19.60;;;9.93;;
13374;SDS011;6756;51.354;15.754;2022-12-18T00:04:42;20.30;;;9.57;;
13374;SDS011;6756;51.354;15.754;2022-12-18T00:08:43;22.83;;;9.67;;
13374;SDS011;6756;51.354;15.754;2022-12-18T00:12:44;24.27;;;10.07;;
13374;SDS011;6756;51.354;15.754;2022-12-18T00:16:46;20.97;;;9.60;;
13374;SDS011;6756;51.354;15.754;2022-12-18T00:20:47;17.27;;;8.53;;
13374;SDS011;6756;51.354;15.754;2022-12-18T00:24:48;21.33;;;9.83;;
13374;SDS011;6756;51.354;15.754;2022-12-18T00:28:49;18.63;;;9.07;;
13374;SDS011;6756;51.354;15.754;2022-12-18T00:32:50;24.30;;;10.10;;
13374;SDS011;6756;51.354;15.754;2022-12-18T00:36:51;25.43;;;9.93;;
13374;SDS011;6756;51.354;15.754;2022-12-18T00:40:52;23.10;;;9.67;;
13374;SDS011;6756;51.354;15.754;2022-12-18T00:44:53;20.70;;;9.07;;
13374;SDS011;6756;51.354;15.754;2022-12-18T00:48:54;19.10;;;9.40;;
13374;SDS011;6756;51.354;15.754;2022-12-18T00:52:55;22.77;;;9.60;;
13374;SDS011;6756;51.354;15.754;2022-12-18T00:56:56;20.80;;;10.30;;
13374;SDS011;6756;51.354;15.754;2022-12-18T01:00:57;26.93;;;10.50;;
13374;SDS011;6756;51.354;15.754;2022-12-18T01:04:58;19.20;;;9.43;;
13374;SDS011;6756;51.354;15.754;2022-12-18T01:08:58;26.77;;;12.93;;
13374;SDS011;6756;51.354;15.754;2022-12-18T01:12:59;34.07;;;13.83;;
13374;SDS011;6756;51.354;15.754;2022-12-18T01:17:00;30.73;;;12.77;;
13374;SDS011;6756;51.354;15.754;2022-12-18T01:21:09;27.00;;;11.63;;
13374;SDS011;6756;51.354;15.754;2022-12-18T01:25:12;28.80;;;10.87;;
13374;SDS011;6756;51.354;15.754;2022-12-18T01:29:13;31.57;;;13.20;;
13374;SDS011;6756;51.354;15.754;2022-12-18T01:33:14;23.90;;;11.70;;
13374;SDS011;6756;51.354;15.754;2022-12-18T01:37:17;26.90;;;11.53;;
13374;SDS011;6756;51.354;15.754;2022-12-18T01:41:22;26.97;;;10.93;;
13374;SDS011;6756;51.354;15.754;2022-12-18T01:45:29;22.20;;;10.90;;
13374;SDS011;6756;51.354;15.754;2022-12-18T01:49:32;24.00;;;11.47;;
13374;SDS011;6756;51.354;15.754;2022-12-18T01:53:32;29.47;;;11.57;;
13374;SDS011;6756;51.354;15.754;2022-12-18T01:57:33;30.83;;;11.63;;
13374;SDS011;6756;51.354;15.754;2022-12-18T02:01:35;26.27;;;12.53;;
13374;SDS011;6756;51.354;15.754;2022-12-18T02:05:49;28.33;;;11.83;;
13374;SDS011;6756;51.354;15.754;2022-12-18T02:09:59;21.50;;;9.43;;
13374;SDS011;6756;51.354;15.754;2022-12-18T02:18:35;29.73;;;12.27;;
13374;SDS011;6756;51.354;15.754;2022-12-18T02:26:50;26.33;;;11.43;;
13374;SDS011;6756;51.354;15.754;2022-12-18T02:30:56;31.80;;;12.23;;
13374;SDS011;6756;51.354;15.754;2022-12-18T02:35:01;25.77;;;11.33;;
13374;SDS011;6756;51.354;15.754;2022-12-18T02:39:04;22.10;;;9.70;;
13374;SDS011;6756;51.354;15.754;2022-12-18T02:43:08;26.33;;;10.90;;
13374;SDS011;6756;51.354;15.754;2022-12-18T02:47:11;23.00;;;10.40;;
13374;SDS011;6756;51.354;15.754;2022-12-18T02:59:58;20.90;;;9.97;;
13374;SDS011;6756;51.354;15.754;2022-12-18T03:04:09;24.30;;;9.17;;
13374;SDS011;6756;51.354;15.754;2022-12-18T03:12:40;21.33;;;8.37;;
13374;SDS011;6756;51.354;15.754;2022-12-18T03:16:42;19.37;;;9.77;;
13374;SDS011;6756;51.354;15.754;2022-12-18T03:20:44;23.80;;;10.00;;
13374;SDS011;6756;51.354;15.754;2022-12-18T03:24:48;22.07;;;9.97;;
13374;SDS011;6756;51.354;15.754;2022-12-18T03:28:51;20.33;;;8.80;;
13374;SDS011;6756;51.354;15.754;2022-12-18T03:32:58;19.10;;;9.23;;
13374;SDS011;6756;51.354;15.754;2022-12-18T03:37:19;18.87;;;9.27;;
13374;SDS011;6756;51.354;15.754;2022-12-18T03:41:31;23.10;;;9.40;;
13374;SDS011;6756;51.354;15.754;2022-12-18T03:45:37;21.87;;;11.13;;
13374;SDS011;6756;51.354;15.754;2022-12-18T03:54:14;22.00;;;10.10;;
13374;SDS011;6756;51.354;15.754;2022-12-18T03:58:17;22.97;;;10.13;;
13374;SDS011;6756;51.354;15.754;2022-12-18T04:02:20;26.03;;;10.43;;
13374;SDS011;6756;51.354;15.754;2022-12-18T04:06:23;29.30;;;12.30;;
13374;SDS011;6756;51.354;15.754;2022-12-18T04:10:25;25.47;;;10.60;;
13374;SDS011;6756;51.354;15.754;2022-12-18T04:14:25;20.23;;;10.03;;
13374;SDS011;6756;51.354;15.754;2022-12-18T04:18:26;25.30;;;11.10;;
13374;SDS011;6756;51.354;15.754;2022-12-18T04:22:27;25.73;;;11.50;;
13374;SDS011;6756;51.354;15.754;2022-12-18T04:26:28;27.43;;;11.83;;
13374;SDS011;6756;51.354;15.754;2022-12-18T04:30:29;26.57;;;11.20;;
13374;SDS011;6756;51.354;15.754;2022-12-18T04:34:31;24.47;;;11.53;;
13374;SDS011;6756;51.354;15.754;2022-12-18T04:38:32;21.13;;;10.60;;
13374;SDS011;6756;51.354;15.754;2022-12-18T04:42:32;23.97;;;10.67;;
13374;SDS011;6756;51.354;15.754;2022-12-18T04:46:33;23.97;;;10.30;;
13374;SDS011;6756;51.354;15.754;2022-12-18T04:50:34;25.53;;;10.80;;
13374;SDS011;6756;51.354;15.754;2022-12-18T04:54:35;26.80;;;11.67;;
13374;SDS011;6756;51.354;15.754;2022-12-18T04:58:36;23.93;;;11.03;;
13374;SDS011;6756;51.354;15.754;2022-12-18T05:02:39;26.53;;;11.77;;
13374;SDS011;6756;51.354;15.754;2022-12-18T05:06:39;24.30;;;12.60;;
13374;SDS011;6756;51.354;15.754;2022-12-18T05:10:40;27.57;;;12.03;;
13374;SDS011;6756;51.354;15.754;2022-12-18T05:14:41;26.07;;;12.37;;
13374;SDS011;6756;51.354;15.754;2022-12-18T05:18:42;26.40;;;12.33;;
13374;SDS011;6756;51.354;15.754;2022-12-18T05:22:43;25.00;;;11.00;;
13374;SDS011;6756;51.354;15.754;2022-12-18T05:26:44;27.53;;;11.30;;
13374;SDS011;6756;51.354;15.754;2022-12-18T05:30:51;33.13;;;12.17;;
13374;SDS011;6756;51.354;15.754;2022-12-18T05:34:53;21.83;;;10.57;;
13374;SDS011;6756;51.354;15.754;2022-12-18T05:38:54;27.90;;;10.80;;
13374;SDS011;6756;51.354;15.754;2022-12-18T05:42:54;24.10;;;11.83;;
13374;SDS011;6756;51.354;15.754;2022-12-18T05:46:55;23.20;;;10.17;;
13374;SDS011;6756;51.354;15.754;2022-12-18T05:50:56;28.83;;;12.33;;
13374;SDS011;6756;51.354;15.754;2022-12-18T05:55:04;25.10;;;10.40;;
13374;SDS011;6756;51.354;15.754;2022-12-18T05:59:05;33.00;;;11.53;;
13374;SDS011;6756;51.354;15.754;2022-12-18T06:03:07;26.97;;;11.80;;
13374;SDS011;6756;51.354;15.754;2022-12-18T06:07:08;22.37;;;10.70;;
13374;SDS011;6756;51.354;15.754;2022-12-18T06:11:09;29.13;;;12.33;;
13374;SDS011;6756;51.354;15.754;2022-12-18T06:15:10;23.30;;;10.70;;
13374;SDS011;6756;51.354;15.754;2022-12-18T06:19:14;19.77;;;9.60;;
13374;SDS011;6756;51.354;15.754;2022-12-18T06:23:15;20.47;;;9.53;;
13374;SDS011;6756;51.354;15.754;2022-12-18T06:27:16;22.20;;;11.07;;
13374;SDS011;6756;51.354;15.754;2022-12-18T06:31:17;24.50;;;12.10;;
13374;SDS011;6756;51.354;15.754;2022-12-18T06:35:18;21.63;;;10.67;;
13374;SDS011;6756;51.354;15.754;2022-12-18T06:39:19;21.07;;;9.90;;
13374;SDS011;6756;51.354;15.754;2022-12-18T06:43:19;24.50;;;10.57;;
13374;SDS011;6756;51.354;15.754;2022-12-18T06:47:20;23.10;;;10.37;;
13374;SDS011;6756;51.354;15.754;2022-12-18T06:51:23;29.60;;;13.07;;
13374;SDS011;6756;51.354;15.754;2022-12-18T06:55:25;30.93;;;14.03;;
13374;SDS011;6756;51.354;15.754;2022-12-18T06:59:25;33.67;;;14.47;;
13374;SDS011;6756;51.354;15.754;2022-12-18T07:03:26;26.10;;;12.83;;
13374;SDS011;6756;51.354;15.754;2022-12-18T07:07:27;25.23;;;11.47;;
13374;SDS011;6756;51.354;15.754;2022-12-18T07:11:28;28.20;;;13.20;;
13374;SDS011;6756;51.354;15.754;2022-12-18T07:15:29;27.53;;;12.77;;
13374;SDS011;6756;51.354;15.754;2022-12-18T07:19:30;30.10;;;13.70;;
13374;SDS011;6756;51.354;15.754;2022-12-18T07:23:32;24.80;;;11.23;;
13374;SDS011;6756;51.354;15.754;2022-12-18T07:27:34;27.33;;;12.57;;
13374;SDS011;6756;51.354;15.754;2022-12-18T07:31:34;21.90;;;11.13;;
13374;SDS011;6756;51.354;15.754;2022-12-18T07:35:35;22.10;;;11.13;;
13374;SDS011;6756;51.354;15.754;2022-12-18T07:39:36;24.90;;;12.03;;
13374;SDS011;6756;51.354;15.754;2022-12-18T07:43:37;23.23;;;11.60;;
13374;SDS011;6756;51.354;15.754;2022-12-18T07:47:38;23.67;;;10.77;;
13374;SDS011;6756;51.354;15.754;2022-12-18T07:51:41;26.40;;;11.13;;
13374;SDS011;6756;51.354;15.754;2022-12-18T07:55:42;20.67;;;11.03;;
13374;SDS011;6756;51.354;15.754;2022-12-18T07:59:43;22.97;;;10.47;;
13374;SDS011;6756;51.354;15.754;2022-12-18T08:03:44;20.87;;;10.43;;
13374;SDS011;6756;51.354;15.754;2022-12-18T08:07:44;20.40;;;9.30;;
13374;SDS011;6756;51.354;15.754;2022-12-18T08:11:45;22.00;;;9.30;;
13374;SDS011;6756;51.354;15.754;2022-12-18T08:15:48;22.27;;;11.00;;
13374;SDS011;6756;51.354;15.754;2022-12-18T08:19:59;21.13;;;10.93;;
13374;SDS011;6756;51.354;15.754;2022-12-18T08:24:00;23.10;;;11.53;;
13374;SDS011;6756;51.354;15.754;2022-12-18T08:28:01;24.07;;;10.97;;
13374;SDS011;6756;51.354;15.754;2022-12-18T08:32:02;85.90;;;48.03;;
13374;SDS011;6756;51.354;15.754;2022-12-18T08:36:04;111.17;;;76.37;;
13374;SDS011;6756;51.354;15.754;2022-12-18T08:40:05;84.73;;;32.13;;
13374;SDS011;6756;51.354;15.754;2022-12-18T08:44:07;26.83;;;15.43;;
13374;SDS011;6756;51.354;15.754;2022-12-18T08:48:27;29.73;;;15.67;;
13374;SDS011;6756;51.354;15.754;2022-12-18T08:52:27;30.13;;;16.87;;
13374;SDS011;6756;51.354;15.754;2022-12-18T08:56:28;56.13;;;20.27;;
13374;SDS011;6756;51.354;15.754;2022-12-18T09:00:33;24.37;;;13.10;;
13374;SDS011;6756;51.354;15.754;2022-12-18T09:04:33;26.90;;;14.53;;
13374;SDS011;6756;51.354;15.754;2022-12-18T09:08:34;29.00;;;14.23;;
13374;SDS011;6756;51.354;15.754;2022-12-18T09:12:36;46.57;;;18.73;;
13374;SDS011;6756;51.354;15.754;2022-12-18T09:16:37;54.80;;;23.10;;
13374;SDS011;6756;51.354;15.754;2022-12-18T09:20:38;55.07;;;25.07;;
13374;SDS011;6756;51.354;15.754;2022-12-18T09:24:39;31.13;;;16.23;;
13374;SDS011;6756;51.354;15.754;2022-12-18T09:28:40;28.20;;;15.30;;
13374;SDS011;6756;51.354;15.754;2022-12-18T09:32:42;30.60;;;16.23;;
13374;SDS011;6756;51.354;15.754;2022-12-18T09:36:43;33.30;;;17.03;;
13374;SDS011;6756;51.354;15.754;2022-12-18T09:40:49;28.23;;;15.33;;
13374;SDS011;6756;51.354;15.754;2022-12-18T09:44:53;31.87;;;16.67;;
13374;SDS011;6756;51.354;15.754;2022-12-18T09:48:55;38.90;;;18.77;;
13374;SDS011;6756;51.354;15.754;2022-12-18T09:53:02;34.37;;;18.20;;
13374;SDS011;6756;51.354;15.754;2022-12-18T09:57:25;41.20;;;20.00;;
13374;SDS011;6756;51.354;15.754;2022-12-18T10:01:26;48.77;;;19.53;;
13374;SDS011;6756;51.354;15.754;2022-12-18T10:09:33;39.87;;;17.03;;
13374;SDS011;6756;51.354;15.754;2022-12-18T10:13:54;26.97;;;13.60;;
13374;SDS011;6756;51.354;15.754;2022-12-18T10:18:21;27.60;;;14.93;;
13374;SDS011;6756;51.354;15.754;2022-12-18T10:26:47;31.57;;;18.23;;
13374;SDS011;6756;51.354;15.754;2022-12-18T10:30:48;28.37;;;14.93;;
13374;SDS011;6756;51.354;15.754;2022-12-18T10:34:49;33.53;;;19.87;;
13374;SDS011;6756;51.354;15.754;2022-12-18T10:38:52;35.43;;;18.57;;
13374;SDS011;6756;51.354;15.754;2022-12-18T10:43:04;33.63;;;18.67;;
13374;SDS011;6756;51.354;15.754;2022-12-18T10:47:12;34.17;;;16.30;;
13374;SDS011;6756;51.354;15.754;2022-12-18T10:51:28;36.07;;;17.87;;
13374;SDS011;6756;51.354;15.754;2022-12-18T10:55:32;38.23;;;21.50;;
13374;SDS011;6756;51.354;15.754;2022-12-18T10:59:49;33.37;;;17.83;;
13374;SDS011;6756;51.354;15.754;2022-12-18T11:07:56;34.03;;;17.07;;
13374;SDS011;6756;51.354;15.754;2022-12-18T11:12:02;34.00;;;16.13;;
13374;SDS011;6756;51.354;15.754;2022-12-18T11:16:06;33.73;;;17.20;;
13374;SDS011;6756;51.354;15.754;2022-12-18T11:24:33;45.77;;;21.30;;
13374;SDS011;6756;51.354;15.754;2022-12-18T11:28:38;38.60;;;17.90;;
13374;SDS011;6756;51.354;15.754;2022-12-18T11:32:40;38.67;;;17.60;;
13374;SDS011;6756;51.354;15.754;2022-12-18T11:36:45;34.07;;;18.43;;
13374;SDS011;6756;51.354;15.754;2022-12-18T11:40:49;42.00;;;19.83;;
13374;SDS011;6756;51.354;15.754;2022-12-18T11:49:18;35.47;;;17.97;;
13374;SDS011;6756;51.354;15.754;2022-12-18T11:53:21;41.97;;;20.67;;
13374;SDS011;6756;51.354;15.754;2022-12-18T11:57:31;42.93;;;20.47;;
13374;SDS011;6756;51.354;15.754;2022-12-18T12:06:25;44.10;;;21.13;;
13374;SDS011;6756;51.354;15.754;2022-12-18T12:19:34;32.93;;;17.73;;
13374;SDS011;6756;51.354;15.754;2022-12-18T12:41:23;39.10;;;20.93;;
13374;SDS011;6756;51.354;15.754;2022-12-18T12:45:49;42.20;;;20.67;;
13374;SDS011;6756;51.354;15.754;2022-12-18T12:49:54;37.03;;;19.53;;
13374;SDS011;6756;51.354;15.754;2022-12-18T12:53:57;43.57;;;20.53;;
13374;SDS011;6756;51.354;15.754;2022-12-18T12:58:02;41.00;;;20.40;;
13374;SDS011;6756;51.354;15.754;2022-12-18T13:06:53;39.07;;;19.70;;
13374;SDS011;6756;51.354;15.754;2022-12-18T13:11:28;41.63;;;20.20;;
13374;SDS011;6756;51.354;15.754;2022-12-18T13:15:49;42.50;;;18.97;;
13374;SDS011;6756;51.354;15.754;2022-12-18T13:20:08;41.67;;;19.60;;
13374;SDS011;6756;51.354;15.754;2022-12-18T13:24:15;42.20;;;21.20;;
13374;SDS011;6756;51.354;15.754;2022-12-18T13:32:46;37.80;;;18.93;;
13374;SDS011;6756;51.354;15.754;2022-12-18T13:36:48;38.30;;;18.90;;
13374;SDS011;6756;51.354;15.754;2022-12-18T13:45:39;41.53;;;20.13;;
13374;SDS011;6756;51.354;15.754;2022-12-18T13:49:43;41.83;;;19.87;;
13374;SDS011;6756;51.354;15.754;2022-12-18T13:58:21;52.50;;;23.47;;
13374;SDS011;6756;51.354;15.754;2022-12-18T14:02:26;45.77;;;20.20;;
13374;SDS011;6756;51.354;15.754;2022-12-18T14:06:41;46.87;;;21.13;;
13374;SDS011;6756;51.354;15.754;2022-12-18T14:11:20;43.67;;;20.03;;
13374;SDS011;6756;51.354;15.754;2022-12-18T14:15:26;43.40;;;22.10;;
13374;SDS011;6756;51.354;15.754;2022-12-18T14:19:34;45.50;;;19.73;;
13374;SDS011;6756;51.354;15.754;2022-12-18T14:23:37;51.50;;;24.77;;
13374;SDS011;6756;51.354;15.754;2022-12-18T14:27:44;44.63;;;19.57;;
13374;SDS011;6756;51.354;15.754;2022-12-18T14:32:07;46.23;;;20.03;;
13374;SDS011;6756;51.354;15.754;2022-12-18T14:36:21;57.73;;;24.23;;
13374;SDS011;6756;51.354;15.754;2022-12-18T14:40:27;43.93;;;20.47;;
13374;SDS011;6756;51.354;15.754;2022-12-18T14:44:27;47.03;;;22.00;;
13374;SDS011;6756;51.354;15.754;2022-12-18T14:48:39;68.23;;;25.80;;
13374;SDS011;6756;51.354;15.754;2022-12-18T14:52:42;54.50;;;20.63;;
13374;SDS011;6756;51.354;15.754;2022-12-18T14:56:56;55.43;;;23.50;;
13374;SDS011;6756;51.354;15.754;2022-12-18T15:01:01;105.07;;;34.43;;
13374;SDS011;6756;51.354;15.754;2022-12-18T15:05:14;53.67;;;21.97;;
13374;SDS011;6756;51.354;15.754;2022-12-18T15:09:22;46.00;;;19.63;;
13374;SDS011;6756;51.354;15.754;2022-12-18T15:13:25;66.33;;;25.20;;
13374;SDS011;6756;51.354;15.754;2022-12-18T15:17:26;68.87;;;27.23;;
13374;SDS011;6756;51.354;15.754;2022-12-18T15:21:28;59.57;;;25.20;;
13374;SDS011;6756;51.354;15.754;2022-12-18T15:25:32;123.63;;;40.53;;
13374;SDS011;6756;51.354;15.754;2022-12-18T15:29:39;179.57;;;52.90;;
13374;SDS011;6756;51.354;15.754;2022-12-18T15:37:42;88.90;;;34.17;;
13374;SDS011;6756;51.354;15.754;2022-12-18T15:41:43;86.03;;;25.60;;
13374;SDS011;6756;51.354;15.754;2022-12-18T15:46:05;210.70;;;61.93;;
13374;SDS011;6756;51.354;15.754;2022-12-18T15:50:09;69.07;;;24.90;;
13374;SDS011;6756;51.354;15.754;2022-12-18T15:54:11;63.03;;;24.17;;
13374;SDS011;6756;51.354;15.754;2022-12-18T15:58:16;62.03;;;25.03;;
13374;SDS011;6756;51.354;15.754;2022-12-18T16:02:17;75.20;;;27.50;;
13374;SDS011;6756;51.354;15.754;2022-12-18T16:06:19;60.90;;;21.13;;
13374;SDS011;6756;51.354;15.754;2022-12-18T16:10:21;63.40;;;22.67;;
13374;SDS011;6756;51.354;15.754;2022-12-18T16:14:24;55.23;;;21.93;;
13374;SDS011;6756;51.354;15.754;2022-12-18T16:18:27;45.47;;;19.13;;
13374;SDS011;6756;51.354;15.754;2022-12-18T16:22:29;46.83;;;18.47;;
13374;SDS011;6756;51.354;15.754;2022-12-18T16:26:30;46.47;;;19.47;;
13374;SDS011;6756;51.354;15.754;2022-12-18T16:30:31;41.50;;;19.23;;
13374;SDS011;6756;51.354;15.754;2022-12-18T16:34:33;47.87;;;19.67;;
13374;SDS011;6756;51.354;15.754;2022-12-18T16:38:34;54.47;;;20.60;;
13374;SDS011;6756;51.354;15.754;2022-12-18T16:42:36;47.07;;;18.53;;
13374;SDS011;6756;51.354;15.754;2022-12-18T16:46:38;32.07;;;15.73;;
13374;SDS011;6756;51.354;15.754;2022-12-18T16:50:39;42.80;;;18.90;;
13374;SDS011;6756;51.354;15.754;2022-12-18T16:54:40;44.40;;;18.43;;
13374;SDS011;6756;51.354;15.754;2022-12-18T16:58:41;120.90;;;39.03;;
13374;SDS011;6756;51.354;15.754;2022-12-18T17:02:42;51.87;;;20.93;;
13374;SDS011;6756;51.354;15.754;2022-12-18T17:06:43;42.00;;;18.53;;
13374;SDS011;6756;51.354;15.754;2022-12-18T17:10:45;44.40;;;17.43;;
13374;SDS011;6756;51.354;15.754;2022-12-18T17:14:46;45.37;;;17.37;;
13374;SDS011;6756;51.354;15.754;2022-12-18T17:18:47;55.07;;;21.93;;
13374;SDS011;6756;51.354;15.754;2022-12-18T17:22:47;57.93;;;23.47;;
13374;SDS011;6756;51.354;15.754;2022-12-18T17:26:48;42.90;;;18.50;;
13374;SDS011;6756;51.354;15.754;2022-12-18T17:30:50;49.87;;;19.17;;
13374;SDS011;6756;51.354;15.754;2022-12-18T17:34:51;43.60;;;18.87;;
13374;SDS011;6756;51.354;15.754;2022-12-18T17:38:53;51.00;;;20.90;;
13374;SDS011;6756;51.354;15.754;2022-12-18T17:42:56;46.97;;;16.93;;
13374;SDS011;6756;51.354;15.754;2022-12-18T17:46:57;46.53;;;18.63;;
13374;SDS011;6756;51.354;15.754;2022-12-18T17:51:02;48.40;;;19.23;;
13374;SDS011;6756;51.354;15.754;2022-12-18T17:55:04;61.43;;;26.90;;
13374;SDS011;6756;51.354;15.754;2022-12-18T17:59:05;46.23;;;19.93;;
13374;SDS011;6756;51.354;15.754;2022-12-18T18:03:06;50.60;;;23.10;;
13374;SDS011;6756;51.354;15.754;2022-12-18T18:07:07;51.23;;;20.07;;
13374;SDS011;6756;51.354;15.754;2022-12-18T18:11:13;51.17;;;20.47;;
13374;SDS011;6756;51.354;15.754;2022-12-18T18:15:34;79.43;;;26.30;;
13374;SDS011;6756;51.354;15.754;2022-12-18T18:19:38;71.50;;;25.73;;
13374;SDS011;6756;51.354;15.754;2022-12-18T18:23:39;79.07;;;26.33;;
13374;SDS011;6756;51.354;15.754;2022-12-18T18:27:39;144.20;;;38.63;;
13374;SDS011;6756;51.354;15.754;2022-12-18T18:31:40;86.77;;;27.00;;
13374;SDS011;6756;51.354;15.754;2022-12-18T18:35:42;86.90;;;30.70;;
13374;SDS011;6756;51.354;15.754;2022-12-18T18:39:43;94.70;;;29.20;;
13374;SDS011;6756;51.354;15.754;2022-12-18T18:43:44;84.77;;;29.90;;
13374;SDS011;6756;51.354;15.754;2022-12-18T18:47:47;65.63;;;26.33;;
13374;SDS011;6756;51.354;15.754;2022-12-18T18:51:52;81.93;;;28.30;;
13374;SDS011;6756;51.354;15.754;2022-12-18T18:55:57;63.23;;;23.00;;
13374;SDS011;6756;51.354;15.754;2022-12-18T18:59:58;61.87;;;24.73;;
13374;SDS011;6756;51.354;15.754;2022-12-18T19:04:00;73.20;;;27.60;;
13374;SDS011;6756;51.354;15.754;2022-12-18T19:08:04;69.57;;;25.17;;
13374;SDS011;6756;51.354;15.754;2022-12-18T19:12:06;66.80;;;22.33;;
13374;SDS011;6756;51.354;15.754;2022-12-18T19:16:26;61.97;;;21.70;;
13374;SDS011;6756;51.354;15.754;2022-12-18T19:20:27;51.20;;;20.60;;
13374;SDS011;6756;51.354;15.754;2022-12-18T19:24:28;51.27;;;21.50;;
13374;SDS011;6756;51.354;15.754;2022-12-18T19:28:29;52.97;;;19.40;;
13374;SDS011;6756;51.354;15.754;2022-12-18T19:32:30;66.37;;;22.90;;
13374;SDS011;6756;51.354;15.754;2022-12-18T19:36:33;72.87;;;29.60;;
13374;SDS011;6756;51.354;15.754;2022-12-18T19:40:39;73.40;;;27.40;;
13374;SDS011;6756;51.354;15.754;2022-12-18T19:44:40;60.27;;;24.80;;
13374;SDS011;6756;51.354;15.754;2022-12-18T19:48:42;56.07;;;23.07;;
13374;SDS011;6756;51.354;15.754;2022-12-18T19:52:44;54.57;;;22.00;;
13374;SDS011;6756;51.354;15.754;2022-12-18T19:56:45;56.87;;;22.57;;
13374;SDS011;6756;51.354;15.754;2022-12-18T20:00:47;62.07;;;24.40;;
13374;SDS011;6756;51.354;15.754;2022-12-18T20:04:48;55.90;;;20.37;;
13374;SDS011;6756;51.354;15.754;2022-12-18T20:08:50;47.37;;;19.53;;
13374;SDS011;6756;51.354;15.754;2022-12-18T20:12:52;52.97;;;22.00;;
13374;SDS011;6756;51.354;15.754;2022-12-18T20:16:53;48.60;;;17.87;;
13374;SDS011;6756;51.354;15.754;2022-12-18T20:20:53;61.00;;;22.50;;
13374;SDS011;6756;51.354;15.754;2022-12-18T20:24:54;54.97;;;21.60;;
13374;SDS011;6756;51.354;15.754;2022-12-18T20:28:55;51.27;;;21.50;;
13374;SDS011;6756;51.354;15.754;2022-12-18T20:32:56;57.57;;;20.73;;
13374;SDS011;6756;51.354;15.754;2022-12-18T20:36:57;53.67;;;20.60;;
13374;SDS011;6756;51.354;15.754;2022-12-18T20:40:58;52.90;;;20.23;;
13374;SDS011;6756;51.354;15.754;2022-12-18T20:45:01;45.20;;;18.63;;
13374;SDS011;6756;51.354;15.754;2022-12-18T20:49:03;61.10;;;20.97;;
13374;SDS011;6756;51.354;15.754;2022-12-18T20:53:04;48.57;;;19.17;;
13374;SDS011;6756;51.354;15.754;2022-12-18T20:57:05;43.17;;;17.80;;
13374;SDS011;6756;51.354;15.754;2022-12-18T21:01:07;48.77;;;19.20;;
13374;SDS011;6756;51.354;15.754;2022-12-18T21:05:10;49.60;;;19.80;;
13374;SDS011;6756;51.354;15.754;2022-12-18T21:09:11;47.57;;;19.77;;
13374;SDS011;6756;51.354;15.754;2022-12-18T21:13:12;47.20;;;19.67;;
13374;SDS011;6756;51.354;15.754;2022-12-18T21:17:13;46.00;;;18.23;;
13374;SDS011;6756;51.354;15.754;2022-12-18T21:21:14;47.50;;;18.03;;
13374;SDS011;6756;51.354;15.754;2022-12-18T21:25:14;48.07;;;19.00;;
13374;SDS011;6756;51.354;15.754;2022-12-18T21:29:20;48.00;;;19.03;;
13374;SDS011;6756;51.354;15.754;2022-12-18T21:33:23;42.63;;;17.80;;
13374;SDS011;6756;51.354;15.754;2022-12-18T21:37:24;47.80;;;18.97;;
13374;SDS011;6756;51.354;15.754;2022-12-18T21:41:25;59.17;;;21.47;;
13374;SDS011;6756;51.354;15.754;2022-12-18T21:45:44;61.57;;;20.83;;
13374;SDS011;6756;51.354;15.754;2022-12-18T21:49:45;60.77;;;25.73;;
13374;SDS011;6756;51.354;15.754;2022-12-18T21:53:46;57.93;;;24.60;;
13374;SDS011;6756;51.354;15.754;2022-12-18T21:57:47;53.47;;;21.70;;
13374;SDS011;6756;51.354;15.754;2022-12-18T22:01:48;60.40;;;23.40;;
13374;SDS011;6756;51.354;15.754;2022-12-18T22:05:50;68.10;;;25.43;;
13374;SDS011;6756;51.354;15.754;2022-12-18T22:09:51;92.47;;;36.40;;
13374;SDS011;6756;51.354;15.754;2022-12-18T22:13:52;77.93;;;29.77;;
13374;SDS011;6756;51.354;15.754;2022-12-18T22:17:53;67.20;;;28.20;;
13374;SDS011;6756;51.354;15.754;2022-12-18T22:21:54;68.50;;;26.80;;
13374;SDS011;6756;51.354;15.754;2022-12-18T22:25:55;49.40;;;22.70;;
13374;SDS011;6756;51.354;15.754;2022-12-18T22:29:56;53.30;;;20.47;;
13374;SDS011;6756;51.354;15.754;2022-12-18T22:34:06;47.80;;;19.03;;
13374;SDS011;6756;51.354;15.754;2022-12-18T22:38:07;50.53;;;22.03;;
13374;SDS011;6756;51.354;15.754;2022-12-18T22:42:08;48.67;;;19.83;;
13374;SDS011;6756;51.354;15.754;2022-12-18T22:46:14;46.00;;;18.10;;
13374;SDS011;6756;51.354;15.754;2022-12-18T22:50:16;40.20;;;17.10;;
13374;SDS011;6756;51.354;15.754;2022-12-18T22:54:16;45.87;;;19.07;;
13374;SDS011;6756;51.354;15.754;2022-12-18T22:58:17;39.97;;;17.17;;
13374;SDS011;6756;51.354;15.754;2022-12-18T23:02:18;45.23;;;19.07;;
13374;SDS011;6756;51.354;15.754;2022-12-18T23:06:20;52.67;;;18.13;;
13374;SDS011;6756;51.354;15.754;2022-12-18T23:10:22;42.73;;;18.67;;
13374;SDS011;6756;51.354;15.754;2022-12-18T23:14:23;74.37;;;27.13;;
13374;SDS011;6756;51.354;15.754;2022-12-18T23:18:24;62.60;;;25.13;;
13374;SDS011;6756;51.354;15.754;2022-12-18T23:22:25;100.43;;;37.13;;
13374;SDS011;6756;51.354;15.754;2022-12-18T23:26:28;86.30;;;33.13;;
13374;SDS011;6756;51.354;15.754;2022-12-18T23:30:30;90.90;;;33.67;;
13374;SDS011;6756;51.354;15.754;2022-12-18T23:34:31;82.63;;;30.73;;
13374;SDS011;6756;51.354;15.754;2022-12-18T23:38:32;58.20;;;22.73;;
13374;SDS011;6756;51.354;15.754;2022-12-18T23:42:33;48.70;;;18.23;;
13374;SDS011;6756;51.354;15.754;2022-12-18T23:46:34;49.67;;;19.60;;
13374;SDS011;6756;51.354;15.754;2022-12-18T23:50:37;42.53;;;18.20;;
13374;SDS011;6756;51.354;15.754;2022-12-18T23:54:38;47.47;;;18.53;;
13374;SDS011;6756;51.354;15.754;2022-12-18T23:58:39;52.07;;;21.20;;
